sensor_id;sensor_type;location;lat;lon;timestamp;temperature;humidity
1978;DHT22;989;53.016;8.346;2023-01-13T00:01:11;11.20;99.90
1978;DHT22;989;53.016;8.346;2023-01-13T00:03:38;11.20;99.90
1978;DHT22;989;53.016;8.346;2023-01-13T00:06:04;11.10;99.90
1978;DHT22;989;53.016;8.346;2023-01-13T00:08:31;11.10;99.90
1978;DHT22;989;53.016;8.346;2023-01-13T00:10:57;11.10;99.90
1978;DHT22;989;53.016;8.346;2023-01-13T00:13:23;11.20;99.90
1978;DHT22;989;53.016;8.346;2023-01-13T00:16:04;11.20;99.90
1978;DHT22;989;53.016;8.346;2023-01-13T00:18:31;11.20;99.90
1978;DHT22;989;53.016;8.346;2023-01-13T00:23:41;11.20;99.90
1978;DHT22;989;53.016;8.346;2023-01-13T00:26:20;11.30;99.90
1978;DHT22;989;53.016;8.346;2023-01-13T00:28:47;11.30;99.90
1978;DHT22;989;53.016;8.346;2023-01-13T00:31:16;11.30;99.90
1978;DHT22;989;53.016;8.346;2023-01-13T00:33:43;11.20;99.90
1978;DHT22;989;53.016;8.346;2023-01-13T00:36:12;11.20;99.90
1978;DHT22;989;53.016;8.346;2023-01-13T00:38:39;11.20;99.30
1978;DHT22;989;53.016;8.346;2023-01-13T00:41:12;11.30;95.00
1978;DHT22;989;53.016;8.346;2023-01-13T00:43:39;11.10;96.30
1978;DHT22;989;53.016;8.346;2023-01-13T00:46:07;11.10;97.00
1978;DHT22;989;53.016;8.346;2023-01-13T00:48:35;11.00;97.00
1978;DHT22;989;53.016;8.346;2023-01-13T00:51:12;11.10;96.70
1978;DHT22;989;53.016;8.346;2023-01-13T00:53:47;11.00;96.90
1978;DHT22;989;53.016;8.346;2023-01-13T00:56:24;11.00;98.00
1978;DHT22;989;53.016;8.346;2023-01-13T00:58:50;11.00;93.60
1978;DHT22;989;53.016;8.346;2023-01-13T01:01:22;10.90;94.10
1978;DHT22;989;53.016;8.346;2023-01-13T01:03:50;10.90;91.80
1978;DHT22;989;53.016;8.346;2023-01-13T01:06:20;10.90;91.60
1978;DHT22;989;53.016;8.346;2023-01-13T01:08:47;10.80;93.00
1978;DHT22;989;53.016;8.346;2023-01-13T01:11:19;10.80;91.60
1978;DHT22;989;53.016;8.346;2023-01-13T01:13:46;10.80;89.40
1978;DHT22;989;53.016;8.346;2023-01-13T01:16:15;10.70;87.70
1978;DHT22;989;53.016;8.346;2023-01-13T01:18:44;10.60;90.10
1978;DHT22;989;53.016;8.346;2023-01-13T01:21:11;10.50;91.30
1978;DHT22;989;53.016;8.346;2023-01-13T01:23:39;10.50;84.50
1978;DHT22;989;53.016;8.346;2023-01-13T01:26:11;10.50;81.80
1978;DHT22;989;53.016;8.346;2023-01-13T01:28:41;10.50;80.20
1978;DHT22;989;53.016;8.346;2023-01-13T01:31:09;10.40;80.80
1978;DHT22;989;53.016;8.346;2023-01-13T01:33:37;10.40;79.50
1978;DHT22;989;53.016;8.346;2023-01-13T01:36:03;10.40;66.80
1978;DHT22;989;53.016;8.346;2023-01-13T01:38:29;10.40;61.50
1978;DHT22;989;53.016;8.346;2023-01-13T01:40:55;10.30;59.70
1978;DHT22;989;53.016;8.346;2023-01-13T01:43:22;10.20;63.70
1978;DHT22;989;53.016;8.346;2023-01-13T01:54:19;10.20;45.90
1978;DHT22;989;53.016;8.346;2023-01-13T01:56:49;10.10;48.90
1978;DHT22;989;53.016;8.346;2023-01-13T01:59:15;10.10;54.20
1978;DHT22;989;53.016;8.346;2023-01-13T02:01:42;10.10;54.90
1978;DHT22;989;53.016;8.346;2023-01-13T02:04:15;10.10;51.50
1978;DHT22;989;53.016;8.346;2023-01-13T02:06:44;10.10;52.10
1978;DHT22;989;53.016;8.346;2023-01-13T02:09:11;10.10;53.00
1978;DHT22;989;53.016;8.346;2023-01-13T02:11:37;10.00;54.20
1978;DHT22;989;53.016;8.346;2023-01-13T02:14:23;10.00;55.40
1978;DHT22;989;53.016;8.346;2023-01-13T02:32:39;9.80;55.80
1978;DHT22;989;53.016;8.346;2023-01-13T02:35:38;9.80;62.00
1978;DHT22;989;53.016;8.346;2023-01-13T02:38:14;9.90;56.10
1978;DHT22;989;53.016;8.346;2023-01-13T02:40:52;9.90;57.30
1978;DHT22;989;53.016;8.346;2023-01-13T02:43:44;10.00;53.50
1978;DHT22;989;53.016;8.346;2023-01-13T02:49:34;10.10;46.00
1978;DHT22;989;53.016;8.346;2023-01-13T02:52:17;10.10;42.80
1978;DHT22;989;53.016;8.346;2023-01-13T02:54:53;10.10;40.40
1978;DHT22;989;53.016;8.346;2023-01-13T02:57:22;10.00;39.70
1978;DHT22;989;53.016;8.346;2023-01-13T02:59:49;10.10;33.00
1978;DHT22;989;53.016;8.346;2023-01-13T03:02:18;10.20;29.70
1978;DHT22;989;53.016;8.346;2023-01-13T03:04:57;10.10;25.20
1978;DHT22;989;53.016;8.346;2023-01-13T03:10:34;10.20;13.70
1978;DHT22;989;53.016;8.346;2023-01-13T03:13:20;10.00;17.60
1978;DHT22;989;53.016;8.346;2023-01-13T03:16:27;10.00;13.70
1978;DHT22;989;53.016;8.346;2023-01-13T03:22:54;9.90;13.70
1978;DHT22;989;53.016;8.346;2023-01-13T03:25:34;9.80;11.70
1978;DHT22;989;53.016;8.346;2023-01-13T03:28:06;9.90;3.70
1978;DHT22;989;53.016;8.346;2023-01-13T03:30:43;10.00;1.00
1978;DHT22;989;53.016;8.346;2023-01-13T03:33:20;9.90;1.00
1978;DHT22;989;53.016;8.346;2023-01-13T03:35:59;9.70;3.50
1978;DHT22;989;53.016;8.346;2023-01-13T03:38:30;9.80;1.70
1978;DHT22;989;53.016;8.346;2023-01-13T03:41:05;9.70;3.10
1978;DHT22;989;53.016;8.346;2023-01-13T03:43:56;9.80;2.00
1978;DHT22;989;53.016;8.346;2023-01-13T03:49:45;9.70;2.00
1978;DHT22;989;53.016;8.346;2023-01-13T03:55:20;9.70;4.70
1978;DHT22;989;53.016;8.346;2023-01-13T04:03:45;9.80;4.90
1978;DHT22;989;53.016;8.346;2023-01-13T04:06:24;9.70;8.20
1978;DHT22;989;53.016;8.346;2023-01-13T04:09:00;9.70;10.50
1978;DHT22;989;53.016;8.346;2023-01-13T04:11:39;9.60;14.30
1978;DHT22;989;53.016;8.346;2023-01-13T04:14:09;9.70;14.10
1978;DHT22;989;53.016;8.346;2023-01-13T04:16:36;9.70;14.70
1978;DHT22;989;53.016;8.346;2023-01-13T04:19:02;9.80;12.30
1978;DHT22;989;53.016;8.346;2023-01-13T04:21:29;9.80;12.20
1978;DHT22;989;53.016;8.346;2023-01-13T04:23:55;9.80;11.30
1978;DHT22;989;53.016;8.346;2023-01-13T04:26:21;9.90;10.70
1978;DHT22;989;53.016;8.346;2023-01-13T04:28:48;9.80;10.50
1978;DHT22;989;53.016;8.346;2023-01-13T04:31:16;9.70;10.60
1978;DHT22;989;53.016;8.346;2023-01-13T04:33:42;9.80;10.00
1978;DHT22;989;53.016;8.346;2023-01-13T04:36:08;9.80;9.20
1978;DHT22;989;53.016;8.346;2023-01-13T04:38:34;9.80;9.80
1978;DHT22;989;53.016;8.346;2023-01-13T04:41:00;9.70;9.30
1978;DHT22;989;53.016;8.346;2023-01-13T04:43:25;9.70;8.50
1978;DHT22;989;53.016;8.346;2023-01-13T04:45:51;9.70;9.60
1978;DHT22;989;53.016;8.346;2023-01-13T04:48:17;9.60;10.40
1978;DHT22;989;53.016;8.346;2023-01-13T04:50:43;9.60;9.30
1978;DHT22;989;53.016;8.346;2023-01-13T04:53:09;9.70;5.60
1978;DHT22;989;53.016;8.346;2023-01-13T04:55:35;9.60;5.50
1978;DHT22;989;53.016;8.346;2023-01-13T04:58:07;9.60;5.30
1978;DHT22;989;53.016;8.346;2023-01-13T05:00:34;9.70;6.40
1978;DHT22;989;53.016;8.346;2023-01-13T05:03:00;9.70;4.40
1978;DHT22;989;53.016;8.346;2023-01-13T05:05:28;9.80;1.70
1978;DHT22;989;53.016;8.346;2023-01-13T05:07:54;9.80;1.00
1978;DHT22;989;53.016;8.346;2023-01-13T05:10:20;9.60;2.60
1978;DHT22;989;53.016;8.346;2023-01-13T05:12:46;9.60;5.70
1978;DHT22;989;53.016;8.346;2023-01-13T05:15:30;9.70;3.10
1978;DHT22;989;53.016;8.346;2023-01-13T05:18:15;9.60;2.60
1978;DHT22;989;53.016;8.346;2023-01-13T05:20:42;9.60;1.90
1978;DHT22;989;53.016;8.346;2023-01-13T05:23:07;9.50;2.90
1978;DHT22;989;53.016;8.346;2023-01-13T05:26:02;9.50;3.50
1978;DHT22;989;53.016;8.346;2023-01-13T05:28:32;9.60;1.00
1978;DHT22;989;53.016;8.346;2023-01-13T05:30:59;9.70;1.00
1978;DHT22;989;53.016;8.346;2023-01-13T05:33:24;9.70;1.00
1978;DHT22;989;53.016;8.346;2023-01-13T05:35:50;9.70;1.00
1978;DHT22;989;53.016;8.346;2023-01-13T05:38:17;9.80;1.00
1978;DHT22;989;53.016;8.346;2023-01-13T05:40:43;9.70;1.00
1978;DHT22;989;53.016;8.346;2023-01-13T05:43:35;9.80;1.00
1978;DHT22;989;53.016;8.346;2023-01-13T05:46:04;9.80;1.00
1978;DHT22;989;53.016;8.346;2023-01-13T05:48:37;9.80;1.00
1978;DHT22;989;53.016;8.346;2023-01-13T05:51:06;9.80;1.00
1978;DHT22;989;53.016;8.346;2023-01-13T05:53:34;9.80;1.00
1978;DHT22;989;53.016;8.346;2023-01-13T05:56:03;9.80;1.00
1978;DHT22;989;53.016;8.346;2023-01-13T05:58:29;9.80;1.00
1978;DHT22;989;53.016;8.346;2023-01-13T06:01:00;9.90;1.00
1978;DHT22;989;53.016;8.346;2023-01-13T06:03:27;9.80;1.00
1978;DHT22;989;53.016;8.346;2023-01-13T06:05:53;9.80;1.00
1978;DHT22;989;53.016;8.346;2023-01-13T06:08:23;9.80;1.00
1978;DHT22;989;53.016;8.346;2023-01-13T06:10:49;9.80;1.00
1978;DHT22;989;53.016;8.346;2023-01-13T06:13:15;9.70;1.00
1978;DHT22;989;53.016;8.346;2023-01-13T06:15:40;9.70;1.00
1978;DHT22;989;53.016;8.346;2023-01-13T06:18:07;9.80;1.00
1978;DHT22;989;53.016;8.346;2023-01-13T06:20:32;9.60;1.00
1978;DHT22;989;53.016;8.346;2023-01-13T06:22:59;9.60;1.00
1978;DHT22;989;53.016;8.346;2023-01-13T06:28:15;9.40;2.40
1978;DHT22;989;53.016;8.346;2023-01-13T06:30:49;9.40;5.10
1978;DHT22;989;53.016;8.346;2023-01-13T06:33:22;9.50;2.30
1978;DHT22;989;53.016;8.346;2023-01-13T06:35:54;9.50;1.00
1978;DHT22;989;53.016;8.346;2023-01-13T06:38:23;9.40;1.80
1978;DHT22;989;53.016;8.346;2023-01-13T06:40:49;9.40;2.70
1978;DHT22;989;53.016;8.346;2023-01-13T06:43:15;9.40;1.00
1978;DHT22;989;53.016;8.346;2023-01-13T06:45:53;9.50;1.00
1978;DHT22;989;53.016;8.346;2023-01-13T06:48:22;9.50;1.00
1978;DHT22;989;53.016;8.346;2023-01-13T06:50:52;9.50;1.00
1978;DHT22;989;53.016;8.346;2023-01-13T06:53:18;9.50;1.00
1978;DHT22;989;53.016;8.346;2023-01-13T06:55:45;9.50;1.00
1978;DHT22;989;53.016;8.346;2023-01-13T06:58:11;9.50;1.00
1978;DHT22;989;53.016;8.346;2023-01-13T07:00:36;9.40;1.00
1978;DHT22;989;53.016;8.346;2023-01-13T07:03:10;9.40;1.00
1978;DHT22;989;53.016;8.346;2023-01-13T07:05:38;9.40;1.00
1978;DHT22;989;53.016;8.346;2023-01-13T07:08:06;9.30;1.00
1978;DHT22;989;53.016;8.346;2023-01-13T07:10:32;9.30;1.00
1978;DHT22;989;53.016;8.346;2023-01-13T07:13:00;9.20;1.00
1978;DHT22;989;53.016;8.346;2023-01-13T07:15:58;9.30;1.00
1978;DHT22;989;53.016;8.346;2023-01-13T07:18:28;9.20;1.00
1978;DHT22;989;53.016;8.346;2023-01-13T07:21:01;9.10;1.00
1978;DHT22;989;53.016;8.346;2023-01-13T07:23:35;9.30;1.00
1978;DHT22;989;53.016;8.346;2023-01-13T07:26:02;9.50;1.00
1978;DHT22;989;53.016;8.346;2023-01-13T07:28:29;9.60;1.00
1978;DHT22;989;53.016;8.346;2023-01-13T07:30:56;9.40;1.00
1978;DHT22;989;53.016;8.346;2023-01-13T07:33:22;9.40;1.00
1978;DHT22;989;53.016;8.346;2023-01-13T07:35:58;9.40;1.00
1978;DHT22;989;53.016;8.346;2023-01-13T07:38:26;9.30;1.00
1978;DHT22;989;53.016;8.346;2023-01-13T07:40:51;9.40;1.00
1978;DHT22;989;53.016;8.346;2023-01-13T07:43:17;9.50;1.00
1978;DHT22;989;53.016;8.346;2023-01-13T07:46:02;9.50;1.00
1978;DHT22;989;53.016;8.346;2023-01-13T07:48:31;9.40;1.00
1978;DHT22;989;53.016;8.346;2023-01-13T07:51:03;9.50;1.00
1978;DHT22;989;53.016;8.346;2023-01-13T07:53:30;9.40;1.00
1978;DHT22;989;53.016;8.346;2023-01-13T07:55:57;9.60;1.00
1978;DHT22;989;53.016;8.346;2023-01-13T07:58:24;9.70;1.00
1978;DHT22;989;53.016;8.346;2023-01-13T08:00:51;9.70;1.00
1978;DHT22;989;53.016;8.346;2023-01-13T08:03:17;9.70;1.00
1978;DHT22;989;53.016;8.346;2023-01-13T08:05:43;9.70;1.00
1978;DHT22;989;53.016;8.346;2023-01-13T08:08:09;9.70;1.00
1978;DHT22;989;53.016;8.346;2023-01-13T08:10:35;9.60;1.00
1978;DHT22;989;53.016;8.346;2023-01-13T08:13:08;9.60;1.00
1978;DHT22;989;53.016;8.346;2023-01-13T08:15:49;9.50;1.00
1978;DHT22;989;53.016;8.346;2023-01-13T08:18:20;9.60;1.00
1978;DHT22;989;53.016;8.346;2023-01-13T08:20:48;9.60;1.00
1978;DHT22;989;53.016;8.346;2023-01-13T08:23:14;9.60;1.00
1978;DHT22;989;53.016;8.346;2023-01-13T08:25:40;9.50;1.00
1978;DHT22;989;53.016;8.346;2023-01-13T08:28:06;9.50;1.00
1978;DHT22;989;53.016;8.346;2023-01-13T08:30:33;9.50;1.00
1978;DHT22;989;53.016;8.346;2023-01-13T08:32:59;9.50;1.00
1978;DHT22;989;53.016;8.346;2023-01-13T08:35:25;9.60;1.00
1978;DHT22;989;53.016;8.346;2023-01-13T08:37:51;9.70;1.00
1978;DHT22;989;53.016;8.346;2023-01-13T08:40:18;9.70;1.00
1978;DHT22;989;53.016;8.346;2023-01-13T08:42:45;9.80;1.00
1978;DHT22;989;53.016;8.346;2023-01-13T08:45:12;9.80;1.00
1978;DHT22;989;53.016;8.346;2023-01-13T08:47:38;9.80;1.00
1978;DHT22;989;53.016;8.346;2023-01-13T08:50:05;9.90;1.00
1978;DHT22;989;53.016;8.346;2023-01-13T08:52:31;10.00;1.00
1978;DHT22;989;53.016;8.346;2023-01-13T08:54:57;9.90;1.00
1978;DHT22;989;53.016;8.346;2023-01-13T09:00:15;9.90;1.00
1978;DHT22;989;53.016;8.346;2023-01-13T09:02:41;9.90;1.00
1978;DHT22;989;53.016;8.346;2023-01-13T09:05:08;9.90;1.00
1978;DHT22;989;53.016;8.346;2023-01-13T09:07:36;10.00;1.00
1978;DHT22;989;53.016;8.346;2023-01-13T09:10:06;10.00;1.00
1978;DHT22;989;53.016;8.346;2023-01-13T09:12:32;10.00;1.00
1978;DHT22;989;53.016;8.346;2023-01-13T09:15:38;10.00;1.00
1978;DHT22;989;53.016;8.346;2023-01-13T09:18:09;10.10;1.00
1978;DHT22;989;53.016;8.346;2023-01-13T09:20:35;10.10;1.00
1978;DHT22;989;53.016;8.346;2023-01-13T09:23:01;10.10;1.00
1978;DHT22;989;53.016;8.346;2023-01-13T09:25:27;10.10;1.00
1978;DHT22;989;53.016;8.346;2023-01-13T09:27:53;10.10;1.00
1978;DHT22;989;53.016;8.346;2023-01-13T09:30:19;10.10;1.00
1978;DHT22;989;53.016;8.346;2023-01-13T09:32:45;10.10;1.00
1978;DHT22;989;53.016;8.346;2023-01-13T09:35:11;10.20;1.00
1978;DHT22;989;53.016;8.346;2023-01-13T09:37:39;10.20;1.00
1978;DHT22;989;53.016;8.346;2023-01-13T09:40:17;10.30;1.00
1978;DHT22;989;53.016;8.346;2023-01-13T09:43:05;10.20;1.00
1978;DHT22;989;53.016;8.346;2023-01-13T09:46:11;10.30;1.00
1978;DHT22;989;53.016;8.346;2023-01-13T09:49:01;10.30;1.00
1978;DHT22;989;53.016;8.346;2023-01-13T09:51:43;10.20;1.00
1978;DHT22;989;53.016;8.346;2023-01-13T09:54:28;10.20;1.00
1978;DHT22;989;53.016;8.346;2023-01-13T09:56:57;9.90;1.00
1978;DHT22;989;53.016;8.346;2023-01-13T09:59:27;9.60;1.00
1978;DHT22;989;53.016;8.346;2023-01-13T10:05:34;9.10;1.00
1978;DHT22;989;53.016;8.346;2023-01-13T10:08:08;9.00;19.80
1978;DHT22;989;53.016;8.346;2023-01-13T10:10:42;8.90;37.00
1978;DHT22;989;53.016;8.346;2023-01-13T10:13:15;8.80;81.60
1978;DHT22;989;53.016;8.346;2023-01-13T10:15:55;8.70;94.00
1978;DHT22;989;53.016;8.346;2023-01-13T10:18:40;8.70;99.90
1978;DHT22;989;53.016;8.346;2023-01-13T10:27:43;8.80;99.90
1978;DHT22;989;53.016;8.346;2023-01-13T10:32:55;8.90;99.90
1978;DHT22;989;53.016;8.346;2023-01-13T10:35:57;9.10;94.40
1978;DHT22;989;53.016;8.346;2023-01-13T10:41:03;9.30;86.10
1978;DHT22;989;53.016;8.346;2023-01-13T10:43:38;9.30;67.70
1978;DHT22;989;53.016;8.346;2023-01-13T10:46:14;9.40;52.10
1978;DHT22;989;53.016;8.346;2023-01-13T10:56:41;9.60;25.40
1978;DHT22;989;53.016;8.346;2023-01-13T10:59:22;9.70;21.60
1978;DHT22;989;53.016;8.346;2023-01-13T11:05:03;9.70;6.50
1978;DHT22;989;53.016;8.346;2023-01-13T11:07:45;9.80;5.50
1978;DHT22;989;53.016;8.346;2023-01-13T11:10:26;9.90;1.00
1978;DHT22;989;53.016;8.346;2023-01-13T11:18:39;9.70;1.00
1978;DHT22;989;53.016;8.346;2023-01-13T11:21:23;9.80;1.00
1978;DHT22;989;53.016;8.346;2023-01-13T11:24:09;9.80;1.00
1978;DHT22;989;53.016;8.346;2023-01-13T11:26:44;9.80;1.00
1978;DHT22;989;53.016;8.346;2023-01-13T11:29:28;9.80;1.00
1978;DHT22;989;53.016;8.346;2023-01-13T11:32:11;9.80;1.00
1978;DHT22;989;53.016;8.346;2023-01-13T11:34:44;9.80;1.00
1978;DHT22;989;53.016;8.346;2023-01-13T11:37:26;9.80;1.00
1978;DHT22;989;53.016;8.346;2023-01-13T11:40:14;9.90;1.00
1978;DHT22;989;53.016;8.346;2023-01-13T11:43:10;9.90;1.00
1978;DHT22;989;53.016;8.346;2023-01-13T11:45:52;9.90;1.00
1978;DHT22;989;53.016;8.346;2023-01-13T11:48:23;9.80;1.00
1978;DHT22;989;53.016;8.346;2023-01-13T11:53:59;9.50;3.20
1978;DHT22;989;53.016;8.346;2023-01-13T12:00:03;9.30;29.50
1978;DHT22;989;53.016;8.346;2023-01-13T12:02:54;9.30;29.90
1978;DHT22;989;53.016;8.346;2023-01-13T12:05:55;9.30;33.10
1978;DHT22;989;53.016;8.346;2023-01-13T12:08:46;9.40;30.10
1978;DHT22;989;53.016;8.346;2023-01-13T12:11:26;9.40;29.70
1978;DHT22;989;53.016;8.346;2023-01-13T12:14:49;9.40;21.40
1978;DHT22;989;53.016;8.346;2023-01-13T12:17:37;9.40;18.00
1978;DHT22;989;53.016;8.346;2023-01-13T12:23:05;9.50;15.00
1978;DHT22;989;53.016;8.346;2023-01-13T12:25:45;9.50;7.40
1978;DHT22;989;53.016;8.346;2023-01-13T12:28:23;9.50;18.80
1978;DHT22;989;53.016;8.346;2023-01-13T12:30:56;9.40;26.10
1978;DHT22;989;53.016;8.346;2023-01-13T12:39:28;9.70;3.70
1978;DHT22;989;53.016;8.346;2023-01-13T12:42:10;9.70;1.00
1978;DHT22;989;53.016;8.346;2023-01-13T12:47:43;9.90;1.00
1978;DHT22;989;53.016;8.346;2023-01-13T12:53:00;10.00;1.00
1978;DHT22;989;53.016;8.346;2023-01-13T13:02:20;10.00;1.00
1978;DHT22;989;53.016;8.346;2023-01-13T13:04:53;10.00;1.00
1978;DHT22;989;53.016;8.346;2023-01-13T13:07:38;9.90;1.00
1978;DHT22;989;53.016;8.346;2023-01-13T13:10:17;9.90;1.00
1978;DHT22;989;53.016;8.346;2023-01-13T13:12:55;9.90;1.00
1978;DHT22;989;53.016;8.346;2023-01-13T13:15:44;9.90;1.00
1978;DHT22;989;53.016;8.346;2023-01-13T13:18:22;9.80;1.00
1978;DHT22;989;53.016;8.346;2023-01-13T13:23:39;9.50;6.10
1978;DHT22;989;53.016;8.346;2023-01-13T13:38:00;9.70;7.10
1978;DHT22;989;53.016;8.346;2023-01-13T13:41:19;9.70;1.00
1978;DHT22;989;53.016;8.346;2023-01-13T13:44:20;9.80;1.00
1978;DHT22;989;53.016;8.346;2023-01-13T13:47:06;9.80;1.00
1978;DHT22;989;53.016;8.346;2023-01-13T13:49:36;9.80;1.00
1978;DHT22;989;53.016;8.346;2023-01-13T13:54:45;9.80;1.00
1978;DHT22;989;53.016;8.346;2023-01-13T13:57:36;9.90;1.00
1978;DHT22;989;53.016;8.346;2023-01-13T14:00:18;9.90;1.00
1978;DHT22;989;53.016;8.346;2023-01-13T14:02:53;9.80;1.00
1978;DHT22;989;53.016;8.346;2023-01-13T14:08:12;9.70;1.00
1978;DHT22;989;53.016;8.346;2023-01-13T14:10:41;9.90;1.00
1978;DHT22;989;53.016;8.346;2023-01-13T14:13:22;9.90;1.00
1978;DHT22;989;53.016;8.346;2023-01-13T14:16:03;9.90;1.00
1978;DHT22;989;53.016;8.346;2023-01-13T14:18:45;9.90;1.00
1978;DHT22;989;53.016;8.346;2023-01-13T14:21:24;9.90;1.00
1978;DHT22;989;53.016;8.346;2023-01-13T14:24:03;9.90;1.00
1978;DHT22;989;53.016;8.346;2023-01-13T14:26:39;9.80;1.00
1978;DHT22;989;53.016;8.346;2023-01-13T14:29:05;9.60;1.00
1978;DHT22;989;53.016;8.346;2023-01-13T14:31:31;9.60;1.00
1978;DHT22;989;53.016;8.346;2023-01-13T14:34:00;9.60;1.00
1978;DHT22;989;53.016;8.346;2023-01-13T14:36:35;9.60;1.00
1978;DHT22;989;53.016;8.346;2023-01-13T14:41:49;9.70;1.00
1978;DHT22;989;53.016;8.346;2023-01-13T14:44:33;9.60;1.00
1978;DHT22;989;53.016;8.346;2023-01-13T14:47:24;9.60;1.00
1978;DHT22;989;53.016;8.346;2023-01-13T14:52:45;9.70;1.00
1978;DHT22;989;53.016;8.346;2023-01-13T14:57:46;9.50;1.00
1978;DHT22;989;53.016;8.346;2023-01-13T15:07:57;9.20;18.00
1978;DHT22;989;53.016;8.346;2023-01-13T15:10:51;9.30;14.70
1978;DHT22;989;53.016;8.346;2023-01-13T15:13:42;9.30;14.20
1978;DHT22;989;53.016;8.346;2023-01-13T15:16:24;9.30;10.30
1978;DHT22;989;53.016;8.346;2023-01-13T15:18:51;9.10;15.40
1978;DHT22;989;53.016;8.346;2023-01-13T15:21:18;9.10;15.20
1978;DHT22;989;53.016;8.346;2023-01-13T15:23:44;9.20;12.40
1978;DHT22;989;53.016;8.346;2023-01-13T15:26:21;9.20;8.20
1978;DHT22;989;53.016;8.346;2023-01-13T15:28:49;9.30;1.00
1978;DHT22;989;53.016;8.346;2023-01-13T15:31:16;9.30;1.00
1978;DHT22;989;53.016;8.346;2023-01-13T15:33:42;9.40;1.00
1978;DHT22;989;53.016;8.346;2023-01-13T15:36:25;9.30;1.00
1978;DHT22;989;53.016;8.346;2023-01-13T15:38:52;9.30;1.00
1978;DHT22;989;53.016;8.346;2023-01-13T15:41:18;9.30;1.00
1978;DHT22;989;53.016;8.346;2023-01-13T15:44:04;9.40;1.00
1978;DHT22;989;53.016;8.346;2023-01-13T15:46:49;9.50;1.00
1978;DHT22;989;53.016;8.346;2023-01-13T15:49:27;9.40;1.00
1978;DHT22;989;53.016;8.346;2023-01-13T15:52:21;9.40;1.00
1978;DHT22;989;53.016;8.346;2023-01-13T15:54:49;9.30;1.00
1978;DHT22;989;53.016;8.346;2023-01-13T15:59:56;9.40;1.00
1978;DHT22;989;53.016;8.346;2023-01-13T16:02:23;9.50;1.00
1978;DHT22;989;53.016;8.346;2023-01-13T16:04:50;9.50;1.00
1978;DHT22;989;53.016;8.346;2023-01-13T16:07:19;9.40;1.00
1978;DHT22;989;53.016;8.346;2023-01-13T16:09:46;9.30;1.00
1978;DHT22;989;53.016;8.346;2023-01-13T16:12:12;9.40;1.00
1978;DHT22;989;53.016;8.346;2023-01-13T16:14:38;9.50;1.00
1978;DHT22;989;53.016;8.346;2023-01-13T16:17:16;9.50;1.00
1978;DHT22;989;53.016;8.346;2023-01-13T16:19:43;9.50;1.00
1978;DHT22;989;53.016;8.346;2023-01-13T16:22:10;9.50;1.00
1978;DHT22;989;53.016;8.346;2023-01-13T16:24:36;9.50;1.00
1978;DHT22;989;53.016;8.346;2023-01-13T16:27:17;9.40;1.00
1978;DHT22;989;53.016;8.346;2023-01-13T16:29:45;9.30;2.30
1978;DHT22;989;53.016;8.346;2023-01-13T16:32:12;9.20;15.30
1978;DHT22;989;53.016;8.346;2023-01-13T16:34:38;9.10;28.40
1978;DHT22;989;53.016;8.346;2023-01-13T16:37:08;8.90;41.80
1978;DHT22;989;53.016;8.346;2023-01-13T16:39:47;8.90;47.90
1978;DHT22;989;53.016;8.346;2023-01-13T16:42:13;8.80;53.60
1978;DHT22;989;53.016;8.346;2023-01-13T16:44:39;8.90;54.60
1978;DHT22;989;53.016;8.346;2023-01-13T16:47:05;8.90;47.20
1978;DHT22;989;53.016;8.346;2023-01-13T16:49:37;8.80;57.80
1978;DHT22;989;53.016;8.346;2023-01-13T16:52:02;8.70;58.80
1978;DHT22;989;53.016;8.346;2023-01-13T16:54:28;8.80;51.20
1978;DHT22;989;53.016;8.346;2023-01-13T16:56:54;8.80;41.70
1978;DHT22;989;53.016;8.346;2023-01-13T16:59:19;8.90;38.50
1978;DHT22;989;53.016;8.346;2023-01-13T17:01:45;8.90;26.30
1978;DHT22;989;53.016;8.346;2023-01-13T17:04:21;8.80;24.50
1978;DHT22;989;53.016;8.346;2023-01-13T17:06:57;9.00;7.90
1978;DHT22;989;53.016;8.346;2023-01-13T17:09:30;9.10;3.40
1978;DHT22;989;53.016;8.346;2023-01-13T17:11:56;9.20;1.00
1978;DHT22;989;53.016;8.346;2023-01-13T17:14:23;9.20;1.00
1978;DHT22;989;53.016;8.346;2023-01-13T17:16:51;9.30;1.00
1978;DHT22;989;53.016;8.346;2023-01-13T17:19:18;9.30;1.00
1978;DHT22;989;53.016;8.346;2023-01-13T17:21:44;9.40;1.00
1978;DHT22;989;53.016;8.346;2023-01-13T17:24:12;9.40;1.00
1978;DHT22;989;53.016;8.346;2023-01-13T17:26:44;9.40;1.00
1978;DHT22;989;53.016;8.346;2023-01-13T17:29:19;9.50;1.00
1978;DHT22;989;53.016;8.346;2023-01-13T17:31:48;9.50;1.00
1978;DHT22;989;53.016;8.346;2023-01-13T17:34:14;9.60;1.00
1978;DHT22;989;53.016;8.346;2023-01-13T17:36:40;9.50;1.00
1978;DHT22;989;53.016;8.346;2023-01-13T17:39:15;9.50;1.00
1978;DHT22;989;53.016;8.346;2023-01-13T17:41:42;9.60;1.00
1978;DHT22;989;53.016;8.346;2023-01-13T17:44:11;9.60;1.00
1978;DHT22;989;53.016;8.346;2023-01-13T17:46:39;9.50;1.00
1978;DHT22;989;53.016;8.346;2023-01-13T17:49:08;9.30;1.00
1978;DHT22;989;53.016;8.346;2023-01-13T17:51:35;9.30;1.00
1978;DHT22;989;53.016;8.346;2023-01-13T17:54:01;9.20;1.00
1978;DHT22;989;53.016;8.346;2023-01-13T17:56:26;9.10;1.00
1978;DHT22;989;53.016;8.346;2023-01-13T17:58:52;9.10;1.00
1978;DHT22;989;53.016;8.346;2023-01-13T18:01:20;9.00;4.90
1978;DHT22;989;53.016;8.346;2023-01-13T18:03:46;9.00;8.70
1978;DHT22;989;53.016;8.346;2023-01-13T18:06:21;8.90;15.90
1978;DHT22;989;53.016;8.346;2023-01-13T18:08:48;8.90;16.30
1978;DHT22;989;53.016;8.346;2023-01-13T18:11:16;8.90;15.20
1978;DHT22;989;53.016;8.346;2023-01-13T18:13:44;8.90;15.10
1978;DHT22;989;53.016;8.346;2023-01-13T18:16:13;8.90;15.00
1978;DHT22;989;53.016;8.346;2023-01-13T18:18:41;8.90;14.60
1978;DHT22;989;53.016;8.346;2023-01-13T18:24:11;8.90;18.40
1978;DHT22;989;53.016;8.346;2023-01-13T18:26:56;8.90;26.90
1978;DHT22;989;53.016;8.346;2023-01-13T18:29:40;8.80;29.70
1978;DHT22;989;53.016;8.346;2023-01-13T18:32:06;8.80;32.00
1978;DHT22;989;53.016;8.346;2023-01-13T18:34:35;8.70;39.60
1978;DHT22;989;53.016;8.346;2023-01-13T18:37:02;8.70;51.80
1978;DHT22;989;53.016;8.346;2023-01-13T18:39:28;8.70;56.50
1978;DHT22;989;53.016;8.346;2023-01-13T18:41:54;8.70;53.10
1978;DHT22;989;53.016;8.346;2023-01-13T18:44:39;8.70;48.30
1978;DHT22;989;53.016;8.346;2023-01-13T18:47:05;8.70;47.40
1978;DHT22;989;53.016;8.346;2023-01-13T18:49:30;8.70;43.20
1978;DHT22;989;53.016;8.346;2023-01-13T18:51:56;8.70;41.20
1978;DHT22;989;53.016;8.346;2023-01-13T18:54:22;8.70;34.00
1978;DHT22;989;53.016;8.346;2023-01-13T18:56:47;8.70;41.60
1978;DHT22;989;53.016;8.346;2023-01-13T18:59:17;8.70;54.90
1978;DHT22;989;53.016;8.346;2023-01-13T19:01:43;8.60;73.90
1978;DHT22;989;53.016;8.346;2023-01-13T19:04:13;8.50;94.10
1978;DHT22;989;53.016;8.346;2023-01-13T19:06:41;8.50;99.90
1978;DHT22;989;53.016;8.346;2023-01-13T19:09:22;8.40;99.90
1978;DHT22;989;53.016;8.346;2023-01-13T19:11:51;8.40;99.90
1978;DHT22;989;53.016;8.346;2023-01-13T19:14:18;8.40;99.90
1978;DHT22;989;53.016;8.346;2023-01-13T19:17:04;8.30;99.90
1978;DHT22;989;53.016;8.346;2023-01-13T19:19:41;8.40;99.90
1978;DHT22;989;53.016;8.346;2023-01-13T19:22:09;8.40;99.90
1978;DHT22;989;53.016;8.346;2023-01-13T19:24:36;8.40;99.90
1978;DHT22;989;53.016;8.346;2023-01-13T19:27:02;8.40;99.90
1978;DHT22;989;53.016;8.346;2023-01-13T19:29:27;8.50;99.90
1978;DHT22;989;53.016;8.346;2023-01-13T19:31:55;8.60;99.90
1978;DHT22;989;53.016;8.346;2023-01-13T19:34:21;8.60;95.90
1978;DHT22;989;53.016;8.346;2023-01-13T19:36:51;8.60;90.50
1978;DHT22;989;53.016;8.346;2023-01-13T19:39:18;8.60;84.60
1978;DHT22;989;53.016;8.346;2023-01-13T19:41:44;8.60;75.80
1978;DHT22;989;53.016;8.346;2023-01-13T19:44:28;8.70;62.80
1978;DHT22;989;53.016;8.346;2023-01-13T19:47:12;8.70;59.00
1978;DHT22;989;53.016;8.346;2023-01-13T19:49:38;8.70;55.90
1978;DHT22;989;53.016;8.346;2023-01-13T19:52:04;8.80;44.70